createdAt,value
2023-01-29T00:01:50.346Z,100266.13
2023-01-29T00:06:56.303Z,100260.19
2023-01-29T00:11:59.186Z,100250.91
2023-01-29T00:17:03.557Z,100249.59
2023-01-29T00:22:06.546Z,100242.28
2023-01-29T00:27:09.417Z,100248.13
2023-01-29T00:32:13.774Z,100232.91
2023-01-29T00:37:16.738Z,100228.28
2023-01-29T00:42:37.328Z,100216.75
2023-01-29T00:47:41.615Z,100218.41
2023-01-29T00:52:44.526Z,100215.03
2023-01-29T00:57:47.885Z,100209.06
2023-01-29T01:03:07.007Z,100212.84
2023-01-29T01:08:25.396Z,100227.06
2023-01-29T01:13:28.307Z,100236.09
2023-01-29T01:18:32.734Z,100238.69
2023-01-29T01:23:36.467Z,100228.78
2023-01-29T01:28:39.766Z,100218.81
2023-01-29T01:33:44.000Z,100212.03
2023-01-29T01:38:46.883Z,100209.16
2023-01-29T01:43:51.975Z,100215.72
2023-01-29T01:49:00.285Z,100203.31
2023-01-29T01:54:08.633Z,100200.13
2023-01-29T01:59:14.271Z,100201.66
2023-01-29T02:04:39.992Z,100216.16
2023-01-29T02:09:47.634Z,100206.50
2023-01-29T02:14:52.527Z,100189.41
2023-01-29T02:20:06.447Z,100185.00
2023-01-29T02:25:55.140Z,100189.41
2023-01-29T02:31:08.620Z,100176.16
2023-01-29T02:36:20.870Z,100186.31
2023-01-29T02:41:30.031Z,100184.16
2023-01-29T02:46:40.551Z,100177.34
2023-01-29T02:51:49.736Z,100190.19
2023-01-29T02:56:57.252Z,100195.97
2023-01-29T03:02:06.061Z,100194.53
2023-01-29T03:07:36.472Z,100194.38
2023-01-29T03:12:42.173Z,100198.72
2023-01-29T03:17:50.670Z,100198.19
2023-01-29T03:23:01.309Z,100198.78
2023-01-29T03:28:24.772Z,100196.50
2023-01-29T03:33:34.223Z,100182.50
2023-01-29T03:38:37.263Z,100183.66
2023-01-29T03:43:49.125Z,100193.94
2023-01-29T03:48:59.149Z,100194.00
2023-01-29T03:54:10.467Z,100184.06
2023-01-29T03:59:24.069Z,100176.91
2023-01-29T04:04:52.013Z,100192.31
2023-01-29T04:09:59.417Z,100187.41
2023-01-29T04:15:03.006Z,100177.66
2023-01-29T04:20:11.298Z,100172.63
2023-01-29T04:25:18.371Z,100146.59
2023-01-29T04:30:27.407Z,100140.19
2023-01-29T04:35:53.317Z,100139.81
2023-01-29T04:41:06.414Z,100135.59
2023-01-29T04:46:17.537Z,100133.13
2023-01-29T04:51:26.157Z,100122.50
2023-01-29T04:56:37.186Z,100115.78
2023-01-29T05:01:40.372Z,100104.13
2023-01-29T05:06:46.709Z,100088.53
2023-01-29T05:11:51.264Z,100094.72
2023-01-29T05:16:56.990Z,100086.56
2023-01-29T05:22:01.532Z,100094.00
2023-01-29T05:27:22.800Z,100082.44
2023-01-29T05:32:25.638Z,100076.34
2023-01-29T05:37:30.239Z,100079.91
2023-01-29T05:42:33.972Z,100084.34
2023-01-29T05:47:36.860Z,100080.44
2023-01-29T05:52:41.254Z,100077.56
2023-01-29T05:57:44.222Z,100067.69
2023-01-29T06:02:47.583Z,100068.22
2023-01-29T06:07:51.876Z,100084.03
2023-01-29T06:12:54.755Z,100086.41
2023-01-29T06:17:58.268Z,100074.31
2023-01-29T06:23:02.628Z,100084.03
2023-01-29T06:28:06.095Z,100103.88
2023-01-29T06:33:08.963Z,100124.28
2023-01-29T06:38:13.161Z,100123.63
2023-01-29T06:43:16.115Z,100121.81
2023-01-29T06:48:19.847Z,100124.41
2023-01-29T06:53:24.963Z,100131.56
2023-01-29T06:58:28.001Z,100153.59
2023-01-29T07:03:30.904Z,100175.34
2023-01-29T07:08:37.672Z,100174.25
2023-01-29T07:13:40.581Z,100183.94
2023-01-29T07:18:43.532Z,100180.78
2023-01-29T07:23:47.830Z,100179.03
2023-01-29T07:28:50.892Z,100181.88
2023-01-29T07:33:53.781Z,100174.75
2023-01-29T07:38:58.067Z,100170.91
2023-01-29T07:44:02.849Z,100159.41
2023-01-29T07:49:05.798Z,100158.47
2023-01-29T07:54:10.023Z,100160.66
2023-01-29T07:59:12.898Z,100145.25
2023-01-29T08:04:15.833Z,100151.94
2023-01-29T08:09:20.118Z,100135.94
2023-01-29T08:14:23.617Z,100112.31
2023-01-29T08:19:26.471Z,100111.47
2023-01-29T08:24:41.613Z,100099.66
2023-01-29T08:29:53.593Z,100090.50
2023-01-29T08:34:56.562Z,100096.63
2023-01-29T08:40:00.814Z,100098.31
2023-01-29T08:45:03.737Z,100092.13
2023-01-29T08:50:07.635Z,100095.59
2023-01-29T08:55:12.570Z,100112.13
2023-01-29T09:00:17.106Z,100111.63
2023-01-29T09:05:20.497Z,100120.72
2023-01-29T09:10:24.924Z,100102.31
2023-01-29T09:15:27.941Z,100083.44
2023-01-29T09:20:30.908Z,100094.00
2023-01-29T09:25:35.328Z,100094.00
2023-01-29T09:30:38.605Z,100087.78
2023-01-29T09:35:42.886Z,100065.88
2023-01-29T09:40:58.334Z,100084.59
2023-01-29T09:46:06.413Z,100087.63
2023-01-29T09:51:27.441Z,100080.03
2023-01-29T09:56:32.088Z,100065.44
2023-01-29T10:01:44.270Z,100051.41
2023-01-29T10:07:00.943Z,100039.69
2023-01-29T10:12:18.392Z,100029.84
2023-01-29T10:17:43.034Z,100025.50
2023-01-29T10:22:59.471Z,100041.81
2023-01-29T10:28:03.787Z,100034.66
2023-01-29T10:33:13.437Z,100026.19
2023-01-29T10:38:25.503Z,100025.88
2023-01-29T10:43:38.143Z,100040.59
2023-01-29T10:48:59.071Z,100033.34
2023-01-29T10:54:19.442Z,100024.22
2023-01-29T10:59:40.578Z,100020.53
2023-01-29T11:04:43.596Z,100005.22
2023-01-29T11:09:54.713Z,99989.09
2023-01-29T11:15:04.094Z,99973.56
2023-01-29T11:20:26.464Z,99961.91
2023-01-29T11:25:32.699Z,99958.88
2023-01-29T11:30:39.765Z,99942.69
2023-01-29T11:35:42.802Z,99937.09
2023-01-29T11:40:46.668Z,99926.56
2023-01-29T11:45:52.485Z,99913.94
2023-01-29T11:51:00.649Z,99931.75
2023-01-29T11:56:16.787Z,99930.94
2023-01-29T12:01:34.694Z,99916.94
2023-01-29T12:06:42.559Z,99917.22
2023-01-29T12:11:45.607Z,99907.13
2023-01-29T12:16:55.326Z,99897.56
2023-01-29T12:22:03.975Z,99888.34
2023-01-29T12:27:14.229Z,99879.88
2023-01-29T12:32:28.971Z,99860.78
2023-01-29T12:37:41.863Z,99835.63
2023-01-29T12:42:49.181Z,99838.03
2023-01-29T12:47:57.428Z,99843.69
2023-01-29T12:53:03.574Z,99845.59
2023-01-29T12:58:13.622Z,99849.19
2023-01-29T13:03:22.779Z,99838.34
2023-01-29T13:08:30.387Z,99833.50
2023-01-29T13:13:38.159Z,99831.88
2023-01-29T13:18:50.036Z,99811.97
2023-01-29T13:23:55.907Z,99816.47
2023-01-29T13:28:59.592Z,99806.81
2023-01-29T13:34:10.992Z,99798.50
2023-01-29T13:39:24.077Z,99798.91
2023-01-29T13:44:30.222Z,99802.97
2023-01-29T13:49:38.711Z,99805.31
2023-01-29T13:54:42.567Z,99818.88
2023-01-29T13:59:54.081Z,99824.22
2023-01-29T14:05:47.352Z,99798.63
2023-01-29T14:11:36.158Z,99795.38
2023-01-29T14:16:39.361Z,99787.06
2023-01-29T14:21:42.426Z,99798.91
2023-01-29T14:26:49.401Z,99795.59
2023-01-29T14:31:56.062Z,99795.31
2023-01-29T14:37:03.173Z,99783.38
2023-01-29T14:42:19.234Z,99777.81
2023-01-29T14:47:43.530Z,99788.84
2023-01-29T14:52:49.598Z,99795.78
2023-01-29T14:57:57.947Z,99809.38
2023-01-29T15:03:02.895Z,99803.78
2023-01-29T15:08:15.110Z,99801.63
2023-01-29T15:13:28.880Z,99798.41
2023-01-29T15:18:39.819Z,99803.31
2023-01-29T15:23:43.369Z,99795.13
2023-01-29T15:29:03.343Z,99781.16
2023-01-29T15:34:08.819Z,99770.75
2023-01-29T15:39:17.237Z,99776.97
2023-01-29T15:44:23.652Z,99776.47
2023-01-29T15:49:32.048Z,99768.41
2023-01-29T15:54:36.599Z,99760.59
2023-01-29T15:59:45.998Z,99758.88
2023-01-29T16:04:49.036Z,99761.88
2023-01-29T16:09:53.745Z,99760.66
2023-01-29T16:14:58.437Z,99761.31
2023-01-29T16:20:03.697Z,99755.06
2023-01-29T16:25:09.149Z,99752.78
2023-01-29T16:30:17.371Z,99756.41
2023-01-29T16:35:20.767Z,99747.31
2023-01-29T16:40:32.440Z,99737.88
2023-01-29T16:45:36.787Z,99729.50
2023-01-29T16:50:54.020Z,99732.63
2023-01-29T16:56:03.718Z,99718.78
2023-01-29T17:01:10.481Z,99723.31
2023-01-29T17:06:19.498Z,99713.09
2023-01-29T17:11:31.138Z,99715.06
2023-01-29T17:16:37.762Z,99721.03
2023-01-29T17:21:40.667Z,99715.47
2023-01-29T17:26:43.783Z,99697.03
2023-01-29T17:31:48.194Z,99708.34
2023-01-29T17:36:51.109Z,99702.88
2023-01-29T17:41:56.115Z,99711.78
2023-01-29T17:47:00.856Z,99700.09
2023-01-29T17:52:04.742Z,99707.16
2023-01-29T17:57:07.630Z,99705.56
2023-01-29T18:02:29.189Z,99690.47
2023-01-29T18:07:32.989Z,99701.84
2023-01-29T18:12:35.833Z,99692.13
2023-01-29T18:17:40.785Z,99693.47
2023-01-29T18:22:43.740Z,99682.94
2023-01-29T18:27:46.757Z,99677.59
2023-01-29T18:32:51.329Z,99674.94
2023-01-29T18:37:54.270Z,99673.09
2023-01-29T18:42:59.696Z,99652.03
2023-01-29T18:48:04.086Z,99662.16
2023-01-29T18:53:07.680Z,99650.25
2023-01-29T18:58:33.638Z,99654.03
2023-01-29T19:03:34.914Z,99628.75
2023-01-29T19:08:37.873Z,99614.94
2023-01-29T19:13:42.530Z,99607.84
2023-01-29T19:18:46.864Z,99603.97
2023-01-29T19:23:49.822Z,99598.72
2023-01-29T19:28:52.844Z,99586.16
2023-01-29T19:33:57.242Z,99592.31
2023-01-29T19:39:00.157Z,99586.78
2023-01-29T19:44:03.301Z,99587.09
2023-01-29T19:49:10.233Z,99576.97
2023-01-29T19:54:13.386Z,99563.56
2023-01-29T19:59:16.242Z,99561.28
2023-01-29T20:04:20.653Z,99560.38
2023-01-29T20:09:23.691Z,99572.41
2023-01-29T20:14:26.727Z,99564.03
2023-01-29T20:19:31.049Z,99567.91
2023-01-29T20:24:39.049Z,99575.91
2023-01-29T20:29:43.679Z,99562.75
2023-01-29T20:34:52.068Z,99551.81
2023-01-29T20:39:55.190Z,99544.81
2023-01-29T20:44:58.182Z,99537.16
2023-01-29T20:50:08.444Z,99530.53
2023-01-29T20:55:13.488Z,99526.91
2023-01-29T21:00:17.585Z,99523.28
2023-01-29T21:05:22.146Z,99508.22
2023-01-29T21:10:25.251Z,99506.03
2023-01-29T21:15:28.333Z,99506.63
2023-01-29T21:20:32.900Z,99484.53
2023-01-29T21:25:36.077Z,99463.91
2023-01-29T21:30:39.104Z,99444.03
2023-01-29T21:35:43.391Z,99462.16
2023-01-29T21:40:46.342Z,99460.16
2023-01-29T21:45:56.451Z,99458.75
2023-01-29T21:51:00.777Z,99443.78
2023-01-29T21:56:05.916Z,99429.91
2023-01-29T22:01:35.126Z,99420.75
2023-01-29T22:06:33.117Z,99399.88
2023-01-29T22:11:35.999Z,99394.03
2023-01-29T22:16:38.990Z,99385.41
2023-01-29T22:21:43.319Z,99372.78
2023-01-29T22:26:47.851Z,99356.03
2023-01-29T22:31:51.441Z,99343.84
2023-01-29T22:36:55.690Z,99325.72
2023-01-29T22:41:58.550Z,99322.44
2023-01-29T22:47:01.934Z,99327.22
2023-01-29T22:52:12.287Z,99296.00
2023-01-29T22:57:16.484Z,99288.97
2023-01-29T23:02:19.369Z,99276.81
2023-01-29T23:07:23.694Z,99274.78
2023-01-29T23:12:26.605Z,99265.16
2023-01-29T23:17:29.522Z,99253.38
2023-01-29T23:22:33.782Z,99242.34
2023-01-29T23:27:36.681Z,99242.78
2023-01-29T23:32:39.568Z,99231.72
2023-01-29T23:37:43.828Z,99225.22
2023-01-29T23:42:49.049Z,99213.13
2023-01-29T23:47:51.912Z,99192.19
2023-01-29T23:52:56.122Z,99167.69
2023-01-29T23:57:58.964Z,99157.50
